Terminal Aerodrome Forecast
Issued by NWS

Home | Current Version | Previous Version | Text Only | Print | Product List | Glossary On
Versions: 1 2 3 4 5 6 7 8 9 10 11 12 13 14 15 16 17 18 19
000
FTUS42 KMLB 031140
TAFISM
TAF
KISM 031140Z 0312/0412 17008KT P6SM BKN060 OVC080
     FM031400 22012KT P6SM SCT035 BKN120 OVC200
     FM031700 23014G22KT P6SM VCTS SCT020CB BKN060 OVC100
      TEMPO 0318/0321 3SM TSRA BKN020CB OVC040
     FM032200 24011KT P6SM VCSH SCT020 BKN080 OVC120
     FM040100 23006KT P6SM SCT030 BKN120 OVC200
     FM040600 21004KT P6SM SCT100 OVC250
      AMD NOT SKED TIL 031200=

USA.gov is the U.S. government's official web portal to all federal, state and local government web resources and services.